RYR8351 EGSS-LEAM
Flight info
| Callsign | RYR8351 |
|---|---|
| Flight time | 2h 44m |
| Altitude | 38000 |
| Route | NUGBO M183 SILVA Q41 SAM N63 LELNA/N0448F370 DCT NOVAN DCT NENEM P152 PPN N10 CJN L27 BLN N865 ESILA |
| Aircraft | B38M/M-SADE3FGILRWY/SB1 |
Departure
| Time | 2026-04-15 06:11 |
|---|---|
| Airport | London Stansted Airport (EGSS) |
Arrival
| Time | 2026-04-15 08:56 |
|---|---|
| Airport | Almería Airport (LEAM) |
| Time | Latitude | Longitude | Altitude | Speed | Heading |
|---|---|---|---|---|---|
| 2026-04-15 05:45 | 51.89000 | 0.25741 | 355 ft | 0 kts | 43° |
| 2026-04-15 06:00 | 51.88994 | 0.25733 | 355 ft | 4 kts | 43° |
| 2026-04-15 06:01 | 51.88975 | 0.25703 | 359 ft | 4 kts | 56° |
| 2026-04-15 06:01 | 51.88971 | 0.25667 | 362 ft | 3 kts | 101° |
| 2026-04-15 06:01 | 51.88973 | 0.25636 | 361 ft | 4 kts | 70° |
| 2026-04-15 06:01 | 51.88962 | 0.25621 | 360 ft | 4 kts | 343° |
| 2026-04-15 06:02 | 51.88945 | 0.25639 | 356 ft | 3 kts | 313° |
| 2026-04-15 06:02 | 51.88932 | 0.25662 | 360 ft | 0 kts | 313° |
| 2026-04-15 06:05 | 51.88940 | 0.25648 | 356 ft | 4 kts | 312° |
| 2026-04-15 06:05 | 51.88972 | 0.25591 | 361 ft | 10 kts | 312° |
| 2026-04-15 06:05 | 51.89022 | 0.25504 | 355 ft | 12 kts | 314° |
| 2026-04-15 06:05 | 51.89083 | 0.25400 | 358 ft | 14 kts | 314° |
| 2026-04-15 06:06 | 51.89154 | 0.25282 | 363 ft | 16 kts | 319° |
| 2026-04-15 06:06 | 51.89253 | 0.25192 | 361 ft | 15 kts | 4° |
| 2026-04-15 06:06 | 51.89324 | 0.25261 | 355 ft | 10 kts | 25° |
| 2026-04-15 06:06 | 51.89377 | 0.25219 | 355 ft | 8 kts | 314° |
| 2026-04-15 06:07 | 51.89411 | 0.25162 | 357 ft | 5 kts | 314° |
| 2026-04-15 06:07 | 51.89429 | 0.25132 | 360 ft | 0 kts | 314° |
| 2026-04-15 06:10 | 51.89429 | 0.25131 | 358 ft | 0 kts | 314° |
| 2026-04-15 06:10 | 51.89433 | 0.25125 | 358 ft | 4 kts | 313° |
| 2026-04-15 06:10 | 51.89485 | 0.25031 | 358 ft | 16 kts | 307° |
| 2026-04-15 06:10 | 51.89434 | 0.24880 | 354 ft | 24 kts | 221° |
| 2026-04-15 06:11 | 51.89149 | 0.24455 | 352 ft | 92 kts | 223° |
| 2026-04-15 06:11 | 51.88512 | 0.23502 | 348 ft | 155 kts | 223° |
| 2026-04-15 06:11 | 51.87655 | 0.22174 | 726 ft | 175 kts | 221° |
| 2026-04-15 06:11 | 51.86775 | 0.20840 | 1703 ft | 171 kts | 220° |
| 2026-04-15 06:12 | 51.85889 | 0.19545 | 2464 ft | 180 kts | 221° |
| 2026-04-15 06:12 | 51.84914 | 0.18082 | 2897 ft | 203 kts | 221° |
| 2026-04-15 06:12 | 51.83828 | 0.16420 | 3412 ft | 220 kts | 225° |
| 2026-04-15 06:12 | 51.83046 | 0.14209 | 3619 ft | 237 kts | 253° |
| 2026-04-15 06:13 | 51.83172 | 0.11516 | 3682 ft | 253 kts | 290° |
| 2026-04-15 06:13 | 51.84370 | 0.09386 | 3780 ft | 268 kts | 329° |
| 2026-04-15 06:13 | 51.86208 | 0.08720 | 3902 ft | 278 kts | 358° |
| 2026-04-15 06:13 | 51.88137 | 0.08643 | 3951 ft | 283 kts | 353° |
| 2026-04-15 06:14 | 51.90116 | 0.08349 | 4350 ft | 285 kts | 350° |
| 2026-04-15 06:14 | 51.92077 | 0.07951 | 5308 ft | 286 kts | 348° |
| 2026-04-15 06:14 | 51.94062 | 0.07478 | 6159 ft | 290 kts | 347° |
| 2026-04-15 06:14 | 51.96067 | 0.06926 | 7015 ft | 293 kts | 342° |
| 2026-04-15 06:15 | 51.97816 | 0.05412 | 7889 ft | 283 kts | 309° |
| 2026-04-15 06:15 | 51.98735 | 0.02708 | 8753 ft | 272 kts | 274° |
| 2026-04-15 06:15 | 51.98531 | -0.00243 | 9627 ft | 265 kts | 246° |
| 2026-04-15 06:15 | 51.97951 | -0.03116 | 10447 ft | 273 kts | 251° |
| 2026-04-15 06:16 | 51.97469 | -0.06200 | 10904 ft | 292 kts | 252° |
| 2026-04-15 06:16 | 51.97002 | -0.09497 | 11414 ft | 306 kts | 253° |
| 2026-04-15 06:16 | 51.96535 | -0.12916 | 12135 ft | 312 kts | 254° |
| 2026-04-15 06:16 | 51.96073 | -0.16374 | 12927 ft | 316 kts | 255° |
| 2026-04-15 06:17 | 51.95609 | -0.19886 | 13664 ft | 321 kts | 255° |
| 2026-04-15 06:17 | 51.95141 | -0.23437 | 14347 ft | 324 kts | 255° |
| 2026-04-15 06:17 | 51.94669 | -0.27026 | 14991 ft | 327 kts | 255° |
| 2026-04-15 06:17 | 51.94192 | -0.30652 | 15630 ft | 330 kts | 255° |
| 2026-04-15 06:18 | 51.93709 | -0.34311 | 16244 ft | 334 kts | 255° |
| 2026-04-15 06:18 | 51.93221 | -0.38003 | 16835 ft | 336 kts | 255° |
| 2026-04-15 06:18 | 51.92727 | -0.41728 | 17406 ft | 339 kts | 255° |
| 2026-04-15 06:18 | 51.92397 | -0.44212 | 17772 ft | 341 kts | 255° |
| 2026-04-15 06:19 | 51.91723 | -0.49267 | 18459 ft | 345 kts | 255° |
| 2026-04-15 06:19 | 51.91386 | -0.51790 | 18751 ft | 347 kts | 255° |
| 2026-04-15 06:19 | 51.90874 | -0.55618 | 19190 ft | 349 kts | 255° |
| 2026-04-15 06:19 | 51.90357 | -0.59469 | 19615 ft | 351 kts | 255° |
| 2026-04-15 06:20 | 51.89836 | -0.63339 | 20027 ft | 353 kts | 255° |
| 2026-04-15 06:20 | 51.89311 | -0.67235 | 20433 ft | 355 kts | 255° |
| 2026-04-15 06:20 | 51.88781 | -0.71146 | 20829 ft | 357 kts | 255° |
| 2026-04-15 06:20 | 51.88248 | -0.75083 | 21223 ft | 359 kts | 255° |
| 2026-04-15 06:21 | 51.87708 | -0.79044 | 21599 ft | 361 kts | 255° |
| 2026-04-15 06:21 | 51.87166 | -0.83024 | 21973 ft | 363 kts | 255° |
| 2026-04-15 06:21 | 51.86619 | -0.87025 | 22340 ft | 365 kts | 255° |
| 2026-04-15 06:21 | 51.86068 | -0.91047 | 22689 ft | 367 kts | 255° |
| 2026-04-15 06:22 | 51.85222 | -0.94915 | 22991 ft | 365 kts | 239° |
| 2026-04-15 06:22 | 51.83656 | -0.98129 | 23320 ft | 366 kts | 221° |
| 2026-04-15 06:22 | 51.81534 | -1.00383 | 23641 ft | 367 kts | 205° |
| 2026-04-15 06:22 | 51.79088 | -1.01605 | 23881 ft | 371 kts | 194° |
| 2026-04-15 06:23 | 51.76553 | -1.02445 | 24149 ft | 373 kts | 193° |
| 2026-04-15 06:23 | 51.73998 | -1.03206 | 24408 ft | 374 kts | 192° |
| 2026-04-15 06:23 | 51.71434 | -1.03921 | 24661 ft | 375 kts | 192° |
| 2026-04-15 06:23 | 51.68852 | -1.04614 | 24907 ft | 376 kts | 192° |
| 2026-04-15 06:24 | 51.66298 | -1.05282 | 25138 ft | 377 kts | 192° |
| 2026-04-15 06:24 | 51.63665 | -1.05961 | 25381 ft | 379 kts | 192° |
| 2026-04-15 06:24 | 51.61083 | -1.06750 | 25596 ft | 378 kts | 198° |
| 2026-04-15 06:24 | 51.58546 | -1.07881 | 25809 ft | 379 kts | 197° |
| 2026-04-15 06:25 | 51.56027 | -1.08963 | 26013 ft | 380 kts | 197° |
| 2026-04-15 06:25 | 51.53466 | -1.10040 | 26259 ft | 381 kts | 197° |
| 2026-04-15 06:25 | 51.50894 | -1.11110 | 26518 ft | 382 kts | 197° |
| 2026-04-15 06:25 | 51.48316 | -1.12183 | 26737 ft | 383 kts | 197° |
| 2026-04-15 06:26 | 51.45738 | -1.13290 | 26967 ft | 384 kts | 197° |
| 2026-04-15 06:26 | 51.43153 | -1.14396 | 27185 ft | 385 kts | 197° |
| 2026-04-15 06:26 | 51.40555 | -1.15505 | 27391 ft | 387 kts | 197° |
| 2026-04-15 06:26 | 51.37951 | -1.16615 | 27587 ft | 388 kts | 197° |
| 2026-04-15 06:27 | 51.35338 | -1.17726 | 27780 ft | 389 kts | 197° |
| 2026-04-15 06:27 | 51.32724 | -1.18837 | 27963 ft | 390 kts | 197° |
| 2026-04-15 06:27 | 51.30100 | -1.19951 | 28136 ft | 391 kts | 197° |
| 2026-04-15 06:27 | 51.27469 | -1.21067 | 28308 ft | 391 kts | 197° |
| 2026-04-15 06:28 | 51.24834 | -1.22182 | 28472 ft | 392 kts | 197° |
| 2026-04-15 06:28 | 51.22194 | -1.23299 | 28627 ft | 393 kts | 197° |
| 2026-04-15 06:28 | 51.19546 | -1.24418 | 28781 ft | 394 kts | 197° |
| 2026-04-15 06:28 | 51.16890 | -1.25538 | 28904 ft | 395 kts | 197° |
| 2026-04-15 06:29 | 51.14232 | -1.26659 | 29051 ft | 396 kts | 197° |
| 2026-04-15 06:29 | 51.11567 | -1.27781 | 29204 ft | 397 kts | 197° |
| 2026-04-15 06:29 | 51.08894 | -1.28904 | 29339 ft | 397 kts | 197° |
| 2026-04-15 06:29 | 51.06223 | -1.30026 | 29471 ft | 398 kts | 197° |
| 2026-04-15 06:30 | 51.03542 | -1.31151 | 29586 ft | 399 kts | 197° |
| 2026-04-15 06:30 | 51.00856 | -1.32276 | 29724 ft | 399 kts | 197° |
| 2026-04-15 06:30 | 50.98167 | -1.33402 | 29825 ft | 400 kts | 197° |
| 2026-04-15 06:31 | 50.93015 | -1.36554 | 30036 ft | 398 kts | 208° |
| 2026-04-15 06:31 | 50.88050 | -1.40490 | 30164 ft | 400 kts | 208° |
| 2026-04-15 06:31 | 50.85599 | -1.42440 | 30325 ft | 398 kts | 208° |
| 2026-04-15 06:32 | 50.83101 | -1.44430 | 30463 ft | 397 kts | 208° |
| 2026-04-15 06:32 | 50.78161 | -1.48358 | 30576 ft | 398 kts | 208° |
| 2026-04-15 06:33 | 50.73245 | -1.52259 | 30692 ft | 399 kts | 208° |
| 2026-04-15 06:33 | 50.68277 | -1.56192 | 30911 ft | 401 kts | 208° |
| 2026-04-15 06:33 | 50.65787 | -1.58160 | 31328 ft | 401 kts | 208° |
| 2026-04-15 06:34 | 50.63280 | -1.60138 | 31554 ft | 404 kts | 208° |
| 2026-04-15 06:34 | 50.60764 | -1.62122 | 31871 ft | 406 kts | 208° |
| 2026-04-15 06:34 | 50.58230 | -1.64117 | 32173 ft | 408 kts | 208° |
| 2026-04-15 06:34 | 50.55687 | -1.66116 | 32483 ft | 409 kts | 208° |
| 2026-04-15 06:35 | 50.53140 | -1.68116 | 32876 ft | 409 kts | 208° |
| 2026-04-15 06:35 | 50.50599 | -1.70110 | 33298 ft | 408 kts | 208° |
| 2026-04-15 06:35 | 50.48063 | -1.72096 | 33701 ft | 407 kts | 208° |
| 2026-04-15 06:35 | 50.45534 | -1.74076 | 34087 ft | 406 kts | 208° |
| 2026-04-15 06:36 | 50.43012 | -1.76047 | 34413 ft | 405 kts | 208° |
| 2026-04-15 06:36 | 50.40495 | -1.78012 | 34724 ft | 404 kts | 208° |
| 2026-04-15 06:36 | 50.37983 | -1.79971 | 34996 ft | 404 kts | 208° |
| 2026-04-15 06:36 | 50.35465 | -1.81932 | 35289 ft | 403 kts | 208° |
| 2026-04-15 06:37 | 50.32955 | -1.83884 | 35587 ft | 402 kts | 208° |
| 2026-04-15 06:37 | 50.30456 | -1.85826 | 36000 ft | 399 kts | 208° |
| 2026-04-15 06:37 | 50.27983 | -1.87746 | 36405 ft | 395 kts | 208° |
| 2026-04-15 06:37 | 50.25524 | -1.89651 | 36704 ft | 394 kts | 208° |
| 2026-04-15 06:38 | 50.23071 | -1.91551 | 36971 ft | 393 kts | 208° |
| 2026-04-15 06:38 | 50.20616 | -1.93450 | 37090 ft | 395 kts | 208° |
| 2026-04-15 06:38 | 50.18162 | -1.95345 | 37061 ft | 392 kts | 208° |
| 2026-04-15 06:39 | 50.13278 | -1.99112 | 37083 ft | 393 kts | 208° |
| 2026-04-15 06:39 | 50.08377 | -2.02882 | 37066 ft | 392 kts | 208° |
| 2026-04-15 06:40 | 50.03482 | -2.06640 | 37073 ft | 392 kts | 208° |
| 2026-04-15 06:40 | 49.98578 | -2.10373 | 37070 ft | 393 kts | 205° |
| 2026-04-15 06:41 | 49.93342 | -2.12933 | 37036 ft | 396 kts | 200° |
| 2026-04-15 06:41 | 49.88090 | -2.15402 | 37064 ft | 398 kts | 200° |
| 2026-04-15 06:42 | 49.82794 | -2.17874 | 37055 ft | 397 kts | 200° |
| 2026-04-15 06:42 | 49.77502 | -2.20337 | 37050 ft | 397 kts | 200° |
| 2026-04-15 06:43 | 49.72211 | -2.22794 | 37032 ft | 397 kts | 200° |
| 2026-04-15 06:43 | 49.66908 | -2.25251 | 37080 ft | 398 kts | 200° |
| 2026-04-15 06:44 | 49.61646 | -2.27683 | 37058 ft | 392 kts | 200° |
| 2026-04-15 06:44 | 49.56423 | -2.30092 | 37058 ft | 392 kts | 200° |
| 2026-04-15 06:45 | 49.51195 | -2.32498 | 37076 ft | 392 kts | 200° |
| 2026-04-15 06:45 | 49.45961 | -2.34901 | 37078 ft | 395 kts | 200° |
| 2026-04-15 06:46 | 49.40692 | -2.37314 | 37076 ft | 395 kts | 200° |
| 2026-04-15 06:46 | 49.35429 | -2.39721 | 37077 ft | 395 kts | 200° |
| 2026-04-15 06:47 | 49.30162 | -2.42123 | 37081 ft | 395 kts | 200° |
| 2026-04-15 06:47 | 49.24927 | -2.44506 | 37073 ft | 396 kts | 200° |
| 2026-04-15 06:48 | 49.19635 | -2.46908 | 37081 ft | 397 kts | 200° |
| 2026-04-15 06:48 | 49.14345 | -2.49305 | 37082 ft | 396 kts | 200° |
| 2026-04-15 06:49 | 49.09063 | -2.51692 | 37084 ft | 396 kts | 200° |
| 2026-04-15 06:49 | 49.03771 | -2.54080 | 37054 ft | 397 kts | 200° |
| 2026-04-15 06:50 | 48.95763 | -2.57681 | 37086 ft | 400 kts | 200° |
| 2026-04-15 06:50 | 48.90427 | -2.60074 | 37090 ft | 400 kts | 200° |
| 2026-04-15 06:51 | 48.85086 | -2.62464 | 37146 ft | 400 kts | 200° |
| 2026-04-15 06:51 | 48.79810 | -2.64821 | 37110 ft | 391 kts | 200° |
| 2026-04-15 06:52 | 48.74597 | -2.67143 | 37100 ft | 390 kts | 200° |
| 2026-04-15 06:52 | 48.69380 | -2.69463 | 37100 ft | 391 kts | 200° |
| 2026-04-15 06:53 | 48.64165 | -2.71776 | 37101 ft | 390 kts | 200° |
| 2026-04-15 06:53 | 48.58950 | -2.74085 | 37103 ft | 391 kts | 200° |
| 2026-04-15 06:54 | 48.53730 | -2.76391 | 37105 ft | 391 kts | 200° |
| 2026-04-15 06:54 | 48.48507 | -2.78693 | 37100 ft | 391 kts | 200° |
| 2026-04-15 06:55 | 48.43290 | -2.80987 | 37109 ft | 391 kts | 200° |
| 2026-04-15 06:55 | 48.38070 | -2.83279 | 37093 ft | 391 kts | 201° |
| 2026-04-15 06:56 | 48.32841 | -2.85569 | 37117 ft | 391 kts | 201° |
| 2026-04-15 06:56 | 48.27614 | -2.87853 | 37116 ft | 391 kts | 201° |
| 2026-04-15 06:57 | 48.22383 | -2.90135 | 37121 ft | 391 kts | 201° |
| 2026-04-15 06:57 | 48.17157 | -2.92409 | 37097 ft | 392 kts | 201° |
| 2026-04-15 06:58 | 48.11903 | -2.94690 | 37121 ft | 394 kts | 201° |
| 2026-04-15 06:58 | 48.06643 | -2.96969 | 37125 ft | 394 kts | 201° |
| 2026-04-15 06:59 | 48.01442 | -2.99218 | 37143 ft | 388 kts | 201° |
| 2026-04-15 06:59 | 47.96236 | -3.01464 | 37099 ft | 387 kts | 201° |
| 2026-04-15 07:00 | 47.91075 | -3.03687 | 37141 ft | 390 kts | 201° |
| 2026-04-15 07:00 | 47.85865 | -3.05925 | 37133 ft | 390 kts | 201° |
| 2026-04-15 07:01 | 47.80655 | -3.08159 | 37138 ft | 390 kts | 201° |
| 2026-04-15 07:01 | 47.75444 | -3.10389 | 37108 ft | 390 kts | 201° |
| 2026-04-15 07:02 | 47.70197 | -3.12630 | 37133 ft | 394 kts | 201° |
| 2026-04-15 07:02 | 47.64934 | -3.14872 | 37136 ft | 393 kts | 201° |
| 2026-04-15 07:03 | 47.59676 | -3.17108 | 37137 ft | 393 kts | 201° |
| 2026-04-15 07:03 | 47.54414 | -3.19341 | 37124 ft | 393 kts | 201° |
| 2026-04-15 07:04 | 47.49149 | -3.21570 | 37145 ft | 394 kts | 201° |
| 2026-04-15 07:04 | 47.43876 | -3.23798 | 37146 ft | 394 kts | 201° |
| 2026-04-15 07:05 | 47.38605 | -3.26021 | 37152 ft | 394 kts | 201° |
| 2026-04-15 07:05 | 47.33334 | -3.28239 | 37133 ft | 394 kts | 201° |
| 2026-04-15 07:06 | 47.28048 | -3.30459 | 37156 ft | 396 kts | 201° |
| 2026-04-15 07:06 | 47.22777 | -3.32667 | 37171 ft | 391 kts | 201° |
| 2026-04-15 07:07 | 47.18439 | -3.34482 | 37160 ft | 390 kts | 201° |
| 2026-04-15 07:07 | 47.13224 | -3.36659 | 37161 ft | 390 kts | 201° |
| 2026-04-15 07:08 | 47.07995 | -3.38838 | 37163 ft | 391 kts | 201° |
| 2026-04-15 07:08 | 47.02763 | -3.41013 | 37161 ft | 391 kts | 201° |
| 2026-04-15 07:09 | 46.97529 | -3.43185 | 37164 ft | 391 kts | 201° |
| 2026-04-15 07:09 | 46.92293 | -3.45353 | 37166 ft | 391 kts | 201° |
| 2026-04-15 07:10 | 46.87032 | -3.47527 | 37166 ft | 395 kts | 201° |
| 2026-04-15 07:10 | 46.81744 | -3.49708 | 37171 ft | 394 kts | 201° |
| 2026-04-15 07:11 | 46.76464 | -3.51881 | 37170 ft | 394 kts | 201° |
| 2026-04-15 07:11 | 46.71181 | -3.54051 | 37171 ft | 394 kts | 201° |
| 2026-04-15 07:12 | 46.65900 | -3.56216 | 37175 ft | 394 kts | 201° |
| 2026-04-15 07:12 | 46.60619 | -3.58377 | 37168 ft | 394 kts | 201° |
| 2026-04-15 07:13 | 46.55372 | -3.60520 | 37178 ft | 394 kts | 201° |
| 2026-04-15 07:13 | 46.50092 | -3.62673 | 37206 ft | 395 kts | 201° |
| 2026-04-15 07:14 | 46.44833 | -3.64812 | 37183 ft | 390 kts | 202° |
| 2026-04-15 07:14 | 46.39610 | -3.66932 | 37188 ft | 390 kts | 202° |
| 2026-04-15 07:15 | 46.34378 | -3.69038 | 37183 ft | 391 kts | 199° |
| 2026-04-15 07:15 | 46.31637 | -3.69416 | 37170 ft | 404 kts | 184° |
| 2026-04-15 07:15 | 46.28820 | -3.68879 | 37180 ft | 410 kts | 180° |
| 2026-04-15 07:16 | 46.23126 | -3.67593 | 37181 ft | 417 kts | 179° |
| 2026-04-15 07:16 | 46.17397 | -3.66190 | 37184 ft | 417 kts | 179° |
| 2026-04-15 07:17 | 46.11668 | -3.64761 | 37199 ft | 417 kts | 179° |
| 2026-04-15 07:17 | 46.05935 | -3.63331 | 37202 ft | 419 kts | 178° |
| 2026-04-15 07:18 | 46.00182 | -3.61898 | 37199 ft | 419 kts | 178° |
| 2026-04-15 07:18 | 45.94435 | -3.60469 | 37204 ft | 419 kts | 178° |
| 2026-04-15 07:19 | 45.88684 | -3.59043 | 37182 ft | 421 kts | 178° |
| 2026-04-15 07:19 | 45.82889 | -3.57609 | 37206 ft | 423 kts | 178° |
| 2026-04-15 07:20 | 45.77095 | -3.56178 | 37207 ft | 422 kts | 178° |
| 2026-04-15 07:20 | 45.71305 | -3.54751 | 37177 ft | 422 kts | 178° |
| 2026-04-15 07:21 | 45.65525 | -3.53329 | 37213 ft | 426 kts | 178° |
| 2026-04-15 07:21 | 45.59688 | -3.51896 | 37211 ft | 425 kts | 178° |
| 2026-04-15 07:22 | 45.53861 | -3.50470 | 37192 ft | 425 kts | 178° |
| 2026-04-15 07:22 | 45.47997 | -3.49037 | 37211 ft | 430 kts | 178° |
| 2026-04-15 07:23 | 45.42102 | -3.47599 | 37215 ft | 429 kts | 178° |
| 2026-04-15 07:23 | 45.36217 | -3.46167 | 37216 ft | 429 kts | 178° |
| 2026-04-15 07:24 | 45.30328 | -3.44737 | 37203 ft | 430 kts | 178° |
| 2026-04-15 07:24 | 45.24405 | -3.43301 | 37218 ft | 432 kts | 178° |
| 2026-04-15 07:25 | 45.18488 | -3.41870 | 37217 ft | 432 kts | 178° |
| 2026-04-15 07:25 | 45.12566 | -3.40441 | 37198 ft | 432 kts | 177° |
| 2026-04-15 07:26 | 45.06619 | -3.39009 | 37224 ft | 434 kts | 177° |
| 2026-04-15 07:26 | 45.00662 | -3.37578 | 37224 ft | 434 kts | 178° |
| 2026-04-15 07:27 | 44.94709 | -3.36150 | 37223 ft | 434 kts | 177° |
| 2026-04-15 07:27 | 44.88748 | -3.34724 | 37231 ft | 435 kts | 177° |
| 2026-04-15 07:28 | 44.82811 | -3.33306 | 37227 ft | 435 kts | 177° |
| 2026-04-15 07:28 | 44.76841 | -3.31884 | 37226 ft | 435 kts | 177° |
| 2026-04-15 07:29 | 44.70869 | -3.30464 | 37231 ft | 435 kts | 177° |
| 2026-04-15 07:29 | 44.64896 | -3.29046 | 37230 ft | 435 kts | 177° |
| 2026-04-15 07:30 | 44.58926 | -3.27633 | 37230 ft | 435 kts | 178° |
| 2026-04-15 07:30 | 44.52950 | -3.26221 | 37225 ft | 437 kts | 177° |
| 2026-04-15 07:31 | 44.46945 | -3.24805 | 37230 ft | 437 kts | 177° |
| 2026-04-15 07:31 | 44.40947 | -3.23393 | 37227 ft | 437 kts | 177° |
| 2026-04-15 07:32 | 44.34945 | -3.21984 | 37223 ft | 438 kts | 177° |
| 2026-04-15 07:32 | 44.28957 | -3.20581 | 37232 ft | 439 kts | 177° |
| 2026-04-15 07:33 | 44.22933 | -3.19171 | 37231 ft | 439 kts | 177° |
| 2026-04-15 07:33 | 44.16905 | -3.17764 | 37214 ft | 439 kts | 177° |
| 2026-04-15 07:34 | 44.10859 | -3.16355 | 37232 ft | 441 kts | 177° |
| 2026-04-15 07:34 | 44.04909 | -3.14138 | 37217 ft | 455 kts | 157° |
| 2026-04-15 07:35 | 43.99730 | -3.08828 | 37213 ft | 467 kts | 147° |
| 2026-04-15 07:35 | 43.94651 | -3.03191 | 37212 ft | 468 kts | 146° |
| 2026-04-15 07:36 | 43.89580 | -2.97499 | 37231 ft | 469 kts | 146° |
| 2026-04-15 07:36 | 43.84508 | -2.91812 | 37226 ft | 469 kts | 146° |
| 2026-04-15 07:37 | 43.79434 | -2.86135 | 37214 ft | 469 kts | 146° |
| 2026-04-15 07:37 | 43.74357 | -2.80465 | 37221 ft | 469 kts | 146° |
| 2026-04-15 07:38 | 43.69279 | -2.74798 | 37222 ft | 469 kts | 146° |
| 2026-04-15 07:38 | 43.64194 | -2.69142 | 37222 ft | 469 kts | 146° |
| 2026-04-15 07:39 | 43.59107 | -2.63496 | 37207 ft | 470 kts | 145° |
| 2026-04-15 07:39 | 43.54002 | -2.57845 | 37217 ft | 471 kts | 145° |
| 2026-04-15 07:40 | 43.48892 | -2.52199 | 37218 ft | 471 kts | 145° |
| 2026-04-15 07:40 | 43.43816 | -2.46603 | 37217 ft | 471 kts | 145° |
| 2026-04-15 07:41 | 43.38702 | -2.40978 | 37209 ft | 471 kts | 145° |
| 2026-04-15 07:41 | 43.33578 | -2.35356 | 37219 ft | 471 kts | 145° |
| 2026-04-15 07:42 | 43.28454 | -2.29745 | 37223 ft | 471 kts | 145° |
| 2026-04-15 07:42 | 43.23319 | -2.24135 | 37232 ft | 473 kts | 145° |
| 2026-04-15 07:43 | 43.18165 | -2.18517 | 37224 ft | 474 kts | 145° |
| 2026-04-15 07:43 | 43.13001 | -2.12897 | 37231 ft | 474 kts | 145° |
| 2026-04-15 07:44 | 43.07833 | -2.07292 | 37226 ft | 474 kts | 145° |
| 2026-04-15 07:44 | 43.02664 | -2.01698 | 37219 ft | 474 kts | 145° |
| 2026-04-15 07:45 | 42.97494 | -1.96114 | 37225 ft | 475 kts | 144° |
| 2026-04-15 07:45 | 42.92311 | -1.90529 | 37221 ft | 475 kts | 144° |
| 2026-04-15 07:46 | 42.87125 | -1.84946 | 37221 ft | 475 kts | 144° |
| 2026-04-15 07:46 | 42.81931 | -1.79366 | 37211 ft | 475 kts | 144° |
| 2026-04-15 07:47 | 42.76379 | -1.74696 | 37201 ft | 464 kts | 166° |
| 2026-04-15 07:47 | 42.73248 | -1.73856 | 37220 ft | 456 kts | 181° |
| 2026-04-15 07:47 | 42.70106 | -1.74000 | 37204 ft | 450 kts | 194° |
| 2026-04-15 07:48 | 42.67117 | -1.75081 | 37214 ft | 441 kts | 206° |
| 2026-04-15 07:48 | 42.64282 | -1.76662 | 37214 ft | 442 kts | 208° |
| 2026-04-15 07:48 | 42.58709 | -1.80143 | 37199 ft | 440 kts | 210° |
| 2026-04-15 07:49 | 42.53185 | -1.83782 | 37210 ft | 442 kts | 211° |
| 2026-04-15 07:49 | 42.47676 | -1.87460 | 37216 ft | 442 kts | 211° |
| 2026-04-15 07:50 | 42.42169 | -1.91136 | 37214 ft | 441 kts | 211° |
| 2026-04-15 07:50 | 42.36691 | -1.94787 | 37203 ft | 437 kts | 211° |
| 2026-04-15 07:51 | 42.31250 | -1.98412 | 37214 ft | 439 kts | 211° |
| 2026-04-15 07:51 | 42.25770 | -2.02051 | 37215 ft | 439 kts | 211° |
| 2026-04-15 07:52 | 42.20282 | -2.05682 | 37210 ft | 439 kts | 211° |
| 2026-04-15 07:52 | 42.14791 | -2.09310 | 37201 ft | 441 kts | 211° |
| 2026-04-15 07:53 | 42.09281 | -2.12946 | 37204 ft | 441 kts | 211° |
| 2026-04-15 07:53 | 42.03766 | -2.16578 | 37208 ft | 441 kts | 210° |
| 2026-04-15 07:54 | 41.98247 | -2.20206 | 37208 ft | 441 kts | 211° |
| 2026-04-15 07:54 | 41.92725 | -2.23828 | 37216 ft | 444 kts | 210° |
| 2026-04-15 07:55 | 41.87173 | -2.27463 | 37219 ft | 444 kts | 210° |
| 2026-04-15 07:56 | 41.78888 | -2.32874 | 37219 ft | 438 kts | 211° |
| 2026-04-15 07:56 | 41.74329 | -2.35846 | 37214 ft | 439 kts | 211° |
| 2026-04-15 07:57 | 41.68826 | -2.39426 | 37233 ft | 441 kts | 211° |
| 2026-04-15 07:57 | 41.63317 | -2.43003 | 37234 ft | 440 kts | 211° |
| 2026-04-15 07:58 | 41.57804 | -2.46575 | 37230 ft | 440 kts | 211° |
| 2026-04-15 07:58 | 41.52291 | -2.50142 | 37212 ft | 441 kts | 210° |
| 2026-04-15 07:59 | 41.46763 | -2.53710 | 37236 ft | 443 kts | 210° |
| 2026-04-15 07:59 | 41.41221 | -2.57280 | 37235 ft | 442 kts | 210° |
| 2026-04-15 08:00 | 41.35681 | -2.60843 | 37231 ft | 442 kts | 210° |
| 2026-04-15 08:00 | 41.32773 | -2.62225 | 37205 ft | 449 kts | 195° |
| 2026-04-15 08:00 | 41.29637 | -2.62535 | 37229 ft | 457 kts | 181° |
| 2026-04-15 08:01 | 41.23240 | -2.62114 | 37230 ft | 462 kts | 181° |
| 2026-04-15 08:01 | 41.16826 | -2.61585 | 37230 ft | 462 kts | 180° |
| 2026-04-15 08:02 | 41.10453 | -2.61021 | 37225 ft | 462 kts | 180° |
| 2026-04-15 08:02 | 41.04027 | -2.60449 | 37238 ft | 464 kts | 180° |
| 2026-04-15 08:03 | 40.97597 | -2.59874 | 37236 ft | 463 kts | 180° |
| 2026-04-15 08:03 | 40.91168 | -2.59294 | 37236 ft | 463 kts | 180° |
| 2026-04-15 08:04 | 40.84736 | -2.58714 | 37234 ft | 464 kts | 180° |
| 2026-04-15 08:04 | 40.78280 | -2.58133 | 37228 ft | 465 kts | 180° |
| 2026-04-15 08:05 | 40.71824 | -2.57552 | 37232 ft | 465 kts | 180° |
| 2026-04-15 08:05 | 40.65370 | -2.56974 | 37245 ft | 465 kts | 180° |
| 2026-04-15 08:06 | 40.58917 | -2.56397 | 37234 ft | 464 kts | 180° |
| 2026-04-15 08:06 | 40.52466 | -2.55821 | 37239 ft | 465 kts | 180° |
| 2026-04-15 08:07 | 40.46014 | -2.55245 | 37240 ft | 465 kts | 180° |
| 2026-04-15 08:07 | 40.39560 | -2.54702 | 37233 ft | 464 kts | 184° |
| 2026-04-15 08:07 | 40.36403 | -2.55203 | 37215 ft | 452 kts | 201° |
| 2026-04-15 08:08 | 40.33445 | -2.56535 | 37243 ft | 451 kts | 204° |
| 2026-04-15 08:08 | 40.27537 | -2.59358 | 37241 ft | 451 kts | 205° |
| 2026-04-15 08:09 | 40.21667 | -2.62272 | 37230 ft | 451 kts | 205° |
| 2026-04-15 08:09 | 40.15785 | -2.65216 | 37235 ft | 453 kts | 205° |
| 2026-04-15 08:10 | 40.09937 | -2.68141 | 37235 ft | 452 kts | 205° |
| 2026-04-15 08:10 | 40.04080 | -2.71064 | 37228 ft | 450 kts | 205° |
| 2026-04-15 08:11 | 39.98229 | -2.73979 | 37226 ft | 451 kts | 205° |
| 2026-04-15 08:11 | 39.92363 | -2.76897 | 37228 ft | 452 kts | 205° |
| 2026-04-15 08:12 | 39.86487 | -2.79814 | 37230 ft | 452 kts | 205° |
| 2026-04-15 08:12 | 39.80615 | -2.82724 | 37226 ft | 452 kts | 205° |
| 2026-04-15 08:13 | 39.74743 | -2.85628 | 37223 ft | 452 kts | 205° |
| 2026-04-15 08:13 | 39.68852 | -2.88537 | 37231 ft | 453 kts | 205° |
| 2026-04-15 08:14 | 39.62962 | -2.91440 | 37241 ft | 453 kts | 205° |
| 2026-04-15 08:14 | 39.57069 | -2.94344 | 37234 ft | 453 kts | 205° |
| 2026-04-15 08:15 | 39.51179 | -2.97244 | 37248 ft | 453 kts | 205° |
| 2026-04-15 08:15 | 39.45274 | -3.00147 | 37246 ft | 454 kts | 205° |
| 2026-04-15 08:16 | 39.39367 | -3.03041 | 37247 ft | 454 kts | 205° |
| 2026-04-15 08:16 | 39.33458 | -3.05922 | 37239 ft | 453 kts | 205° |
| 2026-04-15 08:17 | 39.27575 | -3.08786 | 37236 ft | 452 kts | 205° |
| 2026-04-15 08:17 | 39.21680 | -3.11650 | 37243 ft | 453 kts | 205° |
| 2026-04-15 08:18 | 39.15788 | -3.14508 | 37245 ft | 453 kts | 205° |
| 2026-04-15 08:18 | 39.09892 | -3.17362 | 37251 ft | 452 kts | 205° |
| 2026-04-15 08:19 | 39.03991 | -3.20213 | 37244 ft | 454 kts | 205° |
| 2026-04-15 08:19 | 38.98118 | -3.23045 | 37248 ft | 454 kts | 205° |
| 2026-04-15 08:20 | 38.92202 | -3.25893 | 37246 ft | 454 kts | 205° |
| 2026-04-15 08:20 | 38.86287 | -3.28735 | 37244 ft | 454 kts | 205° |
| 2026-04-15 08:21 | 38.80367 | -3.31574 | 37243 ft | 455 kts | 205° |
| 2026-04-15 08:21 | 38.74439 | -3.34412 | 37252 ft | 455 kts | 205° |
| 2026-04-15 08:22 | 38.68512 | -3.37244 | 37245 ft | 455 kts | 205° |
| 2026-04-15 08:22 | 38.62584 | -3.40072 | 37250 ft | 455 kts | 205° |
| 2026-04-15 08:23 | 38.56653 | -3.42896 | 37244 ft | 455 kts | 205° |
| 2026-04-15 08:23 | 38.50733 | -3.45711 | 37243 ft | 452 kts | 205° |
| 2026-04-15 08:24 | 38.44847 | -3.48504 | 37249 ft | 452 kts | 205° |
| 2026-04-15 08:24 | 38.38957 | -3.51294 | 37245 ft | 451 kts | 205° |
| 2026-04-15 08:25 | 38.33067 | -3.54079 | 37252 ft | 452 kts | 205° |
| 2026-04-15 08:25 | 38.27178 | -3.56859 | 37250 ft | 451 kts | 205° |
| 2026-04-15 08:26 | 38.21290 | -3.59634 | 37256 ft | 451 kts | 205° |
| 2026-04-15 08:26 | 38.15324 | -3.62168 | 37227 ft | 457 kts | 192° |
| 2026-04-15 08:27 | 38.08921 | -3.62463 | 37233 ft | 464 kts | 185° |
| 2026-04-15 08:27 | 38.02606 | -3.62570 | 37254 ft | 438 kts | 185° |
| 2026-04-15 08:27 | 37.99613 | -3.62600 | 37251 ft | 423 kts | 185° |
| 2026-04-15 08:28 | 37.96701 | -3.62626 | 37236 ft | 417 kts | 185° |
| 2026-04-15 08:28 | 37.90847 | -3.62676 | 37265 ft | 425 kts | 185° |
| 2026-04-15 08:29 | 37.84869 | -3.62726 | 37264 ft | 434 kts | 184° |
| 2026-04-15 08:29 | 37.78757 | -3.62777 | 37262 ft | 444 kts | 184° |
| 2026-04-15 08:30 | 37.72555 | -3.62828 | 37252 ft | 451 kts | 184° |
| 2026-04-15 08:30 | 37.66282 | -3.62880 | 37220 ft | 451 kts | 184° |
| 2026-04-15 08:30 | 37.63146 | -3.62904 | 36798 ft | 449 kts | 184° |
| 2026-04-15 08:31 | 37.60022 | -3.62927 | 36170 ft | 449 kts | 184° |
| 2026-04-15 08:31 | 37.56893 | -3.62951 | 35571 ft | 449 kts | 184° |
| 2026-04-15 08:31 | 37.53778 | -3.62975 | 35076 ft | 447 kts | 184° |
| 2026-04-15 08:31 | 37.50673 | -3.62999 | 34576 ft | 445 kts | 184° |
| 2026-04-15 08:32 | 37.47582 | -3.63022 | 34026 ft | 443 kts | 184° |
| 2026-04-15 08:32 | 37.44501 | -3.62908 | 33417 ft | 446 kts | 175° |
| 2026-04-15 08:32 | 37.41503 | -3.61869 | 32781 ft | 450 kts | 156° |
| 2026-04-15 08:32 | 37.38868 | -3.59761 | 32261 ft | 450 kts | 138° |
| 2026-04-15 08:33 | 37.36850 | -3.56803 | 31856 ft | 444 kts | 121° |
| 2026-04-15 08:33 | 37.35417 | -3.53397 | 31462 ft | 438 kts | 116° |
| 2026-04-15 08:33 | 37.34022 | -3.50002 | 31003 ft | 436 kts | 116° |
| 2026-04-15 08:33 | 37.32641 | -3.46607 | 30474 ft | 436 kts | 116° |
| 2026-04-15 08:34 | 37.31270 | -3.43205 | 29878 ft | 436 kts | 115° |
| 2026-04-15 08:34 | 37.29906 | -3.39814 | 29368 ft | 433 kts | 115° |
| 2026-04-15 08:34 | 37.28553 | -3.36451 | 28919 ft | 429 kts | 115° |
| 2026-04-15 08:34 | 37.27211 | -3.33117 | 28466 ft | 426 kts | 115° |
| 2026-04-15 08:35 | 37.25878 | -3.29809 | 28017 ft | 423 kts | 115° |
| 2026-04-15 08:35 | 37.24570 | -3.26510 | 27536 ft | 421 kts | 114° |
| 2026-04-15 08:35 | 37.23281 | -3.23218 | 27106 ft | 418 kts | 115° |
| 2026-04-15 08:35 | 37.22002 | -3.19964 | 26724 ft | 414 kts | 115° |
| 2026-04-15 08:36 | 37.20730 | -3.16732 | 26291 ft | 412 kts | 115° |
| 2026-04-15 08:36 | 37.19463 | -3.13519 | 25860 ft | 410 kts | 115° |
| 2026-04-15 08:36 | 37.18201 | -3.10321 | 25429 ft | 408 kts | 114° |
| 2026-04-15 08:36 | 37.16944 | -3.07138 | 25006 ft | 406 kts | 115° |
| 2026-04-15 08:37 | 37.15691 | -3.03968 | 24602 ft | 405 kts | 114° |
| 2026-04-15 08:37 | 37.14441 | -3.00810 | 24157 ft | 404 kts | 114° |
| 2026-04-15 08:37 | 37.13191 | -2.97655 | 23724 ft | 404 kts | 114° |
| 2026-04-15 08:37 | 37.11944 | -2.94512 | 23243 ft | 402 kts | 114° |
| 2026-04-15 08:38 | 37.10719 | -2.91427 | 22822 ft | 399 kts | 114° |
| 2026-04-15 08:38 | 37.09488 | -2.88328 | 22410 ft | 396 kts | 114° |
| 2026-04-15 08:38 | 37.08260 | -2.85241 | 21992 ft | 395 kts | 114° |
| 2026-04-15 08:38 | 37.07039 | -2.82174 | 21577 ft | 392 kts | 114° |
| 2026-04-15 08:39 | 37.05850 | -2.79120 | 21171 ft | 388 kts | 110° |
| 2026-04-15 08:39 | 37.05260 | -2.75875 | 20692 ft | 380 kts | 88° |
| 2026-04-15 08:39 | 37.05404 | -2.72613 | 20358 ft | 372 kts | 83° |
| 2026-04-15 08:39 | 37.05551 | -2.69399 | 20008 ft | 368 kts | 83° |
| 2026-04-15 08:40 | 37.05701 | -2.66207 | 19632 ft | 366 kts | 83° |
| 2026-04-15 08:40 | 37.05852 | -2.63042 | 19251 ft | 364 kts | 83° |
| 2026-04-15 08:40 | 37.06005 | -2.59893 | 18877 ft | 361 kts | 83° |
| 2026-04-15 08:40 | 37.06156 | -2.56762 | 18494 ft | 359 kts | 83° |
| 2026-04-15 08:41 | 37.06305 | -2.53651 | 18073 ft | 357 kts | 83° |
| 2026-04-15 08:41 | 37.06453 | -2.50568 | 17692 ft | 353 kts | 83° |
| 2026-04-15 08:41 | 37.06598 | -2.47507 | 17319 ft | 350 kts | 83° |
| 2026-04-15 08:41 | 37.06742 | -2.44482 | 16957 ft | 347 kts | 83° |
| 2026-04-15 08:42 | 37.06882 | -2.41483 | 16697 ft | 339 kts | 83° |
| 2026-04-15 08:42 | 37.07017 | -2.38597 | 16684 ft | 326 kts | 83° |
| 2026-04-15 08:42 | 37.07146 | -2.35826 | 16646 ft | 313 kts | 82° |
| 2026-04-15 08:42 | 37.07270 | -2.33161 | 16609 ft | 300 kts | 82° |
| 2026-04-15 08:43 | 37.07389 | -2.30590 | 16472 ft | 296 kts | 82° |
| 2026-04-15 08:43 | 37.07509 | -2.27975 | 16232 ft | 304 kts | 82° |
| 2026-04-15 08:43 | 37.07630 | -2.25308 | 15960 ft | 309 kts | 82° |
| 2026-04-15 08:43 | 37.07750 | -2.22616 | 15652 ft | 310 kts | 83° |
| 2026-04-15 08:44 | 37.07482 | -2.19866 | 14952 ft | 330 kts | 104° |
| 2026-04-15 08:44 | 37.06462 | -2.17235 | 14342 ft | 344 kts | 121° |
| 2026-04-15 08:44 | 37.04845 | -2.15035 | 13661 ft | 352 kts | 140° |
| 2026-04-15 08:44 | 37.02747 | -2.13459 | 12922 ft | 352 kts | 157° |
| 2026-04-15 08:45 | 37.00372 | -2.12833 | 12241 ft | 349 kts | 180° |
| 2026-04-15 08:45 | 36.98013 | -2.13322 | 11648 ft | 341 kts | 202° |
| 2026-04-15 08:45 | 36.96028 | -2.14822 | 11130 ft | 329 kts | 226° |
| 2026-04-15 08:45 | 36.95058 | -2.16279 | 10878 ft | 317 kts | 242° |
| 2026-04-15 08:46 | 36.94328 | -2.18763 | 10565 ft | 296 kts | 267° |
| 2026-04-15 08:46 | 36.94476 | -2.21194 | 10259 ft | 278 kts | 291° |
| 2026-04-15 08:46 | 36.95388 | -2.23251 | 9771 ft | 269 kts | 313° |
| 2026-04-15 08:46 | 36.96844 | -2.24640 | 9208 ft | 263 kts | 338° |
| 2026-04-15 08:47 | 36.98626 | -2.25010 | 8622 ft | 262 kts | 5° |
| 2026-04-15 08:47 | 37.00334 | -2.24266 | 8102 ft | 263 kts | 33° |
| 2026-04-15 08:47 | 37.01578 | -2.22594 | 7573 ft | 267 kts | 60° |
| 2026-04-15 08:47 | 37.02112 | -2.20372 | 7054 ft | 269 kts | 82° |
| 2026-04-15 08:48 | 37.02298 | -2.18038 | 6529 ft | 270 kts | 84° |
| 2026-04-15 08:48 | 37.02449 | -2.15695 | 6023 ft | 270 kts | 88° |
| 2026-04-15 08:48 | 37.02003 | -2.13472 | 5846 ft | 264 kts | 122° |
| 2026-04-15 08:48 | 37.00725 | -2.11907 | 5769 ft | 253 kts | 143° |
| 2026-04-15 08:49 | 36.99377 | -2.10547 | 5720 ft | 244 kts | 138° |
| 2026-04-15 08:49 | 36.98158 | -2.09150 | 5649 ft | 233 kts | 135° |
| 2026-04-15 08:49 | 36.97048 | -2.07767 | 5570 ft | 217 kts | 133° |
| 2026-04-15 08:49 | 36.96038 | -2.06437 | 5441 ft | 205 kts | 135° |
| 2026-04-15 08:50 | 36.94833 | -2.05561 | 5139 ft | 202 kts | 167° |
| 2026-04-15 08:50 | 36.93466 | -2.05649 | 4856 ft | 196 kts | 202° |
| 2026-04-15 08:50 | 36.92414 | -2.06639 | 4613 ft | 188 kts | 236° |
| 2026-04-15 08:50 | 36.91783 | -2.08030 | 4411 ft | 182 kts | 247° |
| 2026-04-15 08:51 | 36.91301 | -2.09480 | 4190 ft | 181 kts | 250° |
| 2026-04-15 08:51 | 36.90868 | -2.10955 | 3964 ft | 180 kts | 252° |
| 2026-04-15 08:51 | 36.90468 | -2.12439 | 3753 ft | 180 kts | 253° |
| 2026-04-15 08:51 | 36.90088 | -2.13928 | 3520 ft | 180 kts | 253° |
| 2026-04-15 08:52 | 36.89718 | -2.15409 | 3296 ft | 179 kts | 254° |
| 2026-04-15 08:52 | 36.89349 | -2.16891 | 3064 ft | 178 kts | 254° |
| 2026-04-15 08:52 | 36.88984 | -2.18366 | 2829 ft | 177 kts | 254° |
| 2026-04-15 08:52 | 36.88623 | -2.19834 | 2593 ft | 176 kts | 254° |
| 2026-04-15 08:53 | 36.88265 | -2.21288 | 2403 ft | 175 kts | 254° |
| 2026-04-15 08:53 | 36.87918 | -2.22693 | 2171 ft | 161 kts | 254° |
| 2026-04-15 08:53 | 36.87604 | -2.23970 | 1950 ft | 153 kts | 253° |
| 2026-04-15 08:53 | 36.87290 | -2.25247 | 1734 ft | 151 kts | 253° |
| 2026-04-15 08:54 | 36.86981 | -2.26501 | 1531 ft | 151 kts | 253° |
| 2026-04-15 08:54 | 36.86678 | -2.27732 | 1334 ft | 150 kts | 253° |
| 2026-04-15 08:54 | 36.86372 | -2.28975 | 1134 ft | 150 kts | 252° |
| 2026-04-15 08:54 | 36.86067 | -2.30214 | 936 ft | 149 kts | 252° |
| 2026-04-15 08:55 | 36.85765 | -2.31444 | 749 ft | 148 kts | 252° |
| 2026-04-15 08:55 | 36.85444 | -2.32671 | 535 ft | 149 kts | 251° |
| 2026-04-15 08:55 | 36.85153 | -2.33910 | 316 ft | 149 kts | 253° |
| 2026-04-15 08:55 | 36.84851 | -2.35151 | 154 ft | 149 kts | 251° |
| 2026-04-15 08:56 | 36.84557 | -2.36343 | 66 ft | 126 kts | 253° |
| 2026-04-15 08:56 | 36.84369 | -2.37117 | 57 ft | 61 kts | 252° |
| 2026-04-15 08:56 | 36.84273 | -2.37510 | 54 ft | 46 kts | 253° |
| 2026-04-15 08:56 | 36.84197 | -2.37897 | 48 ft | 46 kts | 265° |
| 2026-04-15 08:57 | 36.84219 | -2.38143 | 44 ft | 15 kts | 282° |
| 2026-04-15 08:57 | 36.84275 | -2.38188 | 44 ft | 10 kts | 51° |
| 2026-04-15 08:57 | 36.84299 | -2.38107 | 45 ft | 11 kts | 73° |
| 2026-04-15 08:57 | 36.84323 | -2.38007 | 44 ft | 14 kts | 73° |
| 2026-04-15 08:58 | 36.84360 | -2.37859 | 49 ft | 20 kts | 73° |
| 2026-04-15 08:58 | 36.84443 | -2.37511 | 51 ft | 12 kts | 71° |
| 2026-04-15 08:58 | 36.84455 | -2.37474 | 51 ft | 5 kts | 72° |
| 2026-04-15 08:59 | 36.84467 | -2.37427 | 50 ft | 7 kts | 71° |
| 2026-04-15 08:59 | 36.84503 | -2.37384 | 55 ft | 11 kts | 13° |
| 2026-04-15 08:59 | 36.84574 | -2.37290 | 55 ft | 15 kts | 73° |
| 2026-04-15 08:59 | 36.84590 | -2.37264 | 54 ft | 0 kts | 1° |
| 2026-04-15 09:01 | 36.84594 | -2.37265 | 57 ft | 4 kts | 347° |
| 2026-04-15 09:01 | 36.84632 | -2.37280 | 54 ft | 9 kts | 343° |
| 2026-04-15 09:01 | 36.84659 | -2.37279 | 57 ft | 0 kts | 65° |
| 2026-04-15 09:02 | 36.84656 | -2.37270 | 51 ft | 3 kts | 106° |
| 2026-04-15 09:02 | 36.84654 | -2.37262 | 53 ft | 0 kts | 118° |